Time;durP1;ratioP1;P1;durP2;ratioP2;P2;SDS_P1;SDS_P2;PMS_P1;PMS_P2;Temp;Humidity;BMP_temperature;BMP_pressure;BME280_temperature;BME280_humidity;BME280_pressure;Samples;Min_cycle;Max_cycle;Signal;HPM_P1;HPM_P2
2021/04/17 00:01:37;;;;;;;0.00;0.00;;;;;;;4.36;100.00;100555.53;1785466;80;21181;-44
2021/04/17 00:04:05;;;;;;;0.00;0.00;;;;;;;4.37;100.00;100557.17;1785382;80;21130;-46
2021/04/17 00:06:33;;;;;;;0.70;0.45;;;;;;;4.37;100.00;100568.80;1785301;80;21154;-46
2021/04/17 00:09:05;;;;;;;0.15;0.15;;;;;;;4.37;100.00;100564.75;1785224;80;21238;-46
2021/04/17 00:11:35;;;;;;;0.10;0.10;;;;;;;4.38;100.00;100566.95;1785199;80;21106;-45
2021/04/17 00:14:04;;;;;;;0.17;0.17;;;;;;;4.37;100.00;100558.52;1785252;80;21165;-46
2021/04/17 00:16:33;;;;;;;0.10;0.10;;;;;;;4.38;100.00;100554.77;1785471;80;21422;-44
2021/04/17 00:19:00;;;;;;;0.37;0.35;;;;;;;4.37;100.00;100568.80;1785295;80;21333;-46
2021/04/17 00:21:28;;;;;;;0.10;0.10;;;;;;;4.36;100.00;100564.47;1785491;80;21200;-45
2021/04/17 00:23:55;;;;;;;0.47;0.37;;;;;;;4.35;100.00;100560.62;1785365;80;21110;-45
2021/04/17 00:26:23;;;;;;;0.57;0.50;;;;;;;4.34;100.00;100561.70;1785258;80;21090;-45
2021/04/17 00:28:52;;;;;;;0.13;0.13;;;;;;;4.34;100.00;100565.23;1785266;80;21157;-46
2021/04/17 00:31:19;;;;;;;0.47;0.47;;;;;;;4.35;100.00;100564.16;1785393;80;21142;-46
2021/04/17 00:33:47;;;;;;;0.40;0.40;;;;;;;4.34;100.00;100559.81;1785271;80;21103;-45
2021/04/17 00:36:15;;;;;;;0.10;0.10;;;;;;;4.35;100.00;100568.75;1785116;80;21133;-46
2021/04/17 00:38:42;;;;;;;0.68;0.68;;;;;;;4.36;100.00;100569.06;1754395;80;21448;-45
2021/04/17 00:41:11;;;;;;;0.15;0.15;;;;;;;4.37;100.00;100576.11;1754793;80;21401;-45
2021/04/17 00:43:38;;;;;;;0.10;0.10;;;;;;;4.38;100.00;100579.13;1785086;80;21149;-45
2021/04/17 00:46:06;;;;;;;0.05;0.05;;;;;;;4.38;100.00;100576.42;1785260;80;21153;-46
2021/04/17 00:48:34;;;;;;;0.37;0.37;;;;;;;4.40;100.00;100572.92;1785253;80;21130;-46
2021/04/17 00:51:02;;;;;;;0.88;0.88;;;;;;;4.41;100.00;100578.65;1785451;80;21126;-45
2021/04/17 00:53:31;;;;;;;0.42;0.42;;;;;;;4.43;100.00;100581.95;1785298;80;21125;-46
2021/04/17 00:55:59;;;;;;;1.07;0.65;;;;;;;4.44;100.00;100581.69;1785149;80;21204;-45
2021/04/17 00:58:26;;;;;;;0.30;0.30;;;;;;;4.47;100.00;100581.75;1755093;80;21215;-45
2021/04/17 01:00:54;;;;;;;1.47;0.72;;;;;;;4.46;100.00;100579.58;1785208;80;21121;-47
2021/04/17 01:04:00;;;;;;;0.70;0.23;;;;;;;4.48;100.00;100580.17;1785099;80;21095;-46
2021/04/17 01:06:36;;;;;;;0.10;0.10;;;;;;;4.50;100.00;100579.92;1754518;80;21210;-44
2021/04/17 01:09:12;;;;;;;0.53;0.53;;;;;;;4.49;100.00;100577.75;1785250;80;21134;-46
2021/04/17 01:11:49;;;;;;;0.57;0.57;;;;;;;4.50;100.00;100585.33;1785352;80;21146;-45
2021/04/17 01:14:17;;;;;;;0.57;0.57;;;;;;;4.50;100.00;100586.17;1785342;80;21217;-44
2021/04/17 01:16:45;;;;;;;0.47;0.37;;;;;;;4.50;100.00;100581.27;1785664;80;21110;-46
2021/04/17 01:19:14;;;;;;;0.20;0.20;;;;;;;4.52;100.00;100589.98;1756008;79;21154;-45
2021/04/17 01:21:41;;;;;;;0.10;0.10;;;;;;;4.52;100.00;100589.98;1767732;79;21133;-46
2021/04/17 01:24:16;;;;;;;1.47;0.93;;;;;;;4.53;100.00;100593.00;1794143;79;21647;-45
2021/04/17 01:26:44;;;;;;;0.47;0.47;;;;;;;4.53;100.00;100595.70;1794185;79;21169;-45
2021/04/17 01:29:11;;;;;;;0.68;0.68;;;;;;;4.54;100.00;100590.57;1742455;79;21086;-45
2021/04/17 01:31:40;;;;;;;0.33;0.33;;;;;;;4.55;100.00;100596.80;1767489;79;21576;-45
2021/04/17 01:34:08;;;;;;;1.87;1.32;;;;;;;4.56;100.00;100595.77;1767903;79;21165;-46
2021/04/17 01:36:37;;;;;;;0.72;0.72;;;;;;;4.56;100.00;100600.64;1794204;79;21468;-44
2021/04/17 01:39:08;;;;;;;0.85;0.60;;;;;;;4.58;100.00;100608.00;1794041;79;21106;-45
2021/04/17 01:41:48;;;;;;;0.25;0.25;;;;;;;4.60;100.00;100612.66;1794108;79;21624;-45
2021/04/17 01:44:21;;;;;;;1.00;0.95;;;;;;;4.62;100.00;100609.16;1794060;79;21068;-45
2021/04/17 01:47:00;;;;;;;0.68;0.68;;;;;;;4.63;100.00;100606.76;1794047;79;21580;-45
2021/04/17 01:49:33;;;;;;;0.33;0.33;;;;;;;4.64;100.00;100600.81;1794113;79;21209;-45
2021/04/17 01:52:01;;;;;;;0.28;0.28;;;;;;;4.65;100.00;100603.30;1794163;79;21138;-45
2021/04/17 01:54:30;;;;;;;0.57;0.57;;;;;;;4.65;100.00;100603.30;1742806;79;21171;-44
2021/04/17 01:57:01;;;;;;;0.25;0.25;;;;;;;4.65;100.00;100607.35;1768231;79;21121;-46
2021/04/17 01:59:32;;;;;;;0.30;0.30;;;;;;;4.64;100.00;100601.62;1794317;79;21145;-45
2021/04/17 02:02:00;;;;;;;0.08;0.08;;;;;;;4.64;100.00;100605.69;1794525;79;21531;-45
2021/04/17 02:04:27;;;;;;;0.00;0.00;;;;;;;4.64;100.00;100607.58;1794450;79;21126;-45
2021/04/17 02:06:56;;;;;;;0.30;0.30;;;;;;;4.62;100.00;100605.09;1794432;79;21113;-46
2021/04/17 02:09:25;;;;;;;0.10;0.10;;;;;;;4.62;100.00;100603.73;1794324;79;21369;-46
2021/04/17 02:11:52;;;;;;;0.00;0.00;;;;;;;4.63;100.00;100610.81;1794314;79;21170;-45
2021/04/17 02:14:20;;;;;;;0.05;0.05;;;;;;;4.64;100.00;100608.92;1794447;79;21145;-44
2021/04/17 02:16:54;;;;;;;0.40;0.40;;;;;;;4.65;100.00;100611.41;1794400;79;21133;-45
2021/04/17 02:19:36;;;;;;;0.35;0.20;;;;;;;4.65;100.00;100618.69;1794450;79;21377;-45
2021/04/17 02:22:03;;;;;;;0.95;0.95;;;;;;;4.64;100.00;100617.05;1794465;79;21126;-45
2021/04/17 02:24:31;;;;;;;0.10;0.10;;;;;;;4.63;100.00;100620.30;1767769;79;21140;-46
2021/04/17 02:26:59;;;;;;;0.17;0.17;;;;;;;4.62;100.00;100622.69;1768032;79;21097;-45
2021/04/17 02:29:26;;;;;;;0.10;0.10;;;;;;;4.64;100.00;100622.46;1794351;79;21085;-45
2021/04/17 02:31:54;;;;;;;0.53;0.53;;;;;;;4.62;100.00;100628.10;1794467;79;21087;-44
2021/04/17 02:34:21;;;;;;;0.25;0.25;;;;;;;4.60;100.00;100632.95;1794315;79;21153;-44
2021/04/17 02:36:49;;;;;;;1.55;0.35;;;;;;;4.58;100.00;100643.19;1766613;79;21409;-44
2021/04/17 02:39:17;;;;;;;0.00;0.00;;;;;;;4.57;100.00;100641.52;1794501;79;21141;-44
2021/04/17 02:41:45;;;;;;;1.10;1.00;;;;;;;4.57;100.00;100644.22;1794360;79;21117;-45
2021/04/17 02:44:13;;;;;;;0.93;0.90;;;;;;;4.57;100.00;100645.58;1794345;79;21118;-45
2021/04/17 02:46:40;;;;;;;0.30;0.30;;;;;;;4.57;100.00;100650.98;1767486;79;21678;-46
2021/04/17 02:49:08;;;;;;;1.17;1.07;;;;;;;4.57;100.00;100645.58;1794296;79;21110;-45
2021/04/17 02:51:35;;;;;;;0.30;0.30;;;;;;;4.57;100.00;100652.34;1794332;79;21508;-45
2021/04/17 02:54:04;;;;;;;0.70;0.25;;;;;;;4.56;100.00;100657.48;1794274;79;21126;-44
2021/04/17 02:56:32;;;;;;;0.00;0.00;;;;;;;4.56;100.00;100662.07;1794469;79;21118;-45
2021/04/17 02:59:00;;;;;;;0.20;0.20;;;;;;;4.53;100.00;100660.66;1794482;79;21640;-45
2021/04/17 03:01:28;;;;;;;0.20;0.20;;;;;;;4.54;100.00;100666.35;1794264;79;21141;-45
2021/04/17 03:03:56;;;;;;;0.10;0.10;;;;;;;4.55;100.00;100665.31;1794356;79;21109;-46
2021/04/17 03:06:23;;;;;;;0.35;0.35;;;;;;;4.56;100.00;100671.00;1794427;79;21156;-44
2021/04/17 03:08:51;;;;;;;0.10;0.10;;;;;;;4.56;100.00;100676.42;1794430;79;21113;-46
2021/04/17 03:11:18;;;;;;;0.35;0.20;;;;;;;4.55;100.00;100677.49;1794421;79;21165;-44
2021/04/17 03:13:47;;;;;;;1.30;0.82;;;;;;;4.56;100.00;100677.77;1794305;79;21158;-45
2021/04/17 03:16:14;;;;;;;0.62;0.35;;;;;;;4.56;100.00;100676.42;1794331;79;21113;-44
2021/04/17 03:18:42;;;;;;;0.55;0.55;;;;;;;4.56;100.00;100673.72;1794363;79;21126;-45
2021/04/17 03:21:10;;;;;;;0.10;0.10;;;;;;;4.57;100.00;100689.42;1794543;79;21086;-46
2021/04/17 03:23:38;;;;;;;1.90;0.30;;;;;;;4.57;100.00;100684.82;1794430;79;21505;-44
2021/04/17 03:26:05;;;;;;;0.62;0.62;;;;;;;4.57;100.00;100688.06;1794263;79;21161;-46
2021/04/17 03:28:33;;;;;;;0.10;0.03;;;;;;;4.58;100.00;100689.20;1794401;79;21126;-44
2021/04/17 03:31:01;;;;;;;0.05;0.05;;;;;;;4.61;100.00;100694.13;1794401;79;21687;-45
2021/04/17 03:33:29;;;;;;;0.60;0.60;;;;;;;4.62;100.00;100702.53;1794438;79;21126;-45
2021/04/17 03:35:56;;;;;;;0.03;0.03;;;;;;;4.63;100.00;100698.79;1794311;79;21560;-44
2021/04/17 03:38:24;;;;;;;0.10;0.10;;;;;;;4.66;100.00;100703.73;1793997;79;21130;-46
2021/04/17 03:40:51;;;;;;;0.37;0.37;;;;;;;4.68;100.00;100698.91;1793843;79;21586;-44
2021/04/17 03:43:19;;;;;;;0.95;0.50;;;;;;;4.68;100.00;100703.50;1793906;79;21081;-45
2021/04/17 03:45:48;;;;;;;0.80;0.60;;;;;;;4.69;100.00;100711.37;1794013;79;21133;-47
2021/04/17 03:48:15;;;;;;;0.10;0.10;;;;;;;4.71;100.00;100712.50;1794067;79;21125;-45
2021/04/17 03:50:44;;;;;;;1.25;0.85;;;;;;;4.73;100.00;100718.52;1793913;79;21138;-45
2021/04/17 03:53:11;;;;;;;0.20;0.20;;;;;;;4.77;100.00;100724.27;1794024;79;21105;-44
2021/04/17 03:55:39;;;;;;;0.00;0.00;;;;;;;4.78;100.00;100725.94;1794007;79;21188;-44
2021/04/17 03:58:08;;;;;;;0.30;0.30;;;;;;;4.78;100.00;100728.65;1794237;79;21109;-45
2021/04/17 04:00:36;;;;;;;0.10;0.10;;;;;;;4.81;100.00;100737.64;1792527;79;21141;-45
2021/04/17 04:03:03;;;;;;;0.50;0.50;;;;;;;4.85;100.00;100740.20;1793843;79;21148;-46
2021/04/17 04:05:33;;;;;;;0.15;0.15;;;;;;;4.86;100.00;100736.41;1793664;78;21114;-45
2021/04/17 04:08:01;;;;;;;0.03;0.03;;;;;;;4.89;100.00;100733.23;1793664;79;21141;-45
2021/04/17 04:10:29;;;;;;;0.33;0.33;;;;;;;4.92;100.00;100734.95;1793825;78;21540;-45
2021/04/17 04:12:56;;;;;;;0.33;0.33;;;;;;;4.95;100.00;100749.37;1793948;79;21445;-45
2021/04/17 04:15:24;;;;;;;0.35;0.35;;;;;;;4.96;100.00;100744.77;1793583;79;21609;-45
2021/04/17 04:17:51;;;;;;;0.17;0.17;;;;;;;4.97;100.00;100749.15;1793965;79;21121;-45
2021/04/17 04:20:19;;;;;;;0.37;0.37;;;;;;;4.98;100.00;100752.14;1792210;79;21231;-45
2021/04/17 04:22:47;;;;;;;0.62;0.50;;;;;;;5.02;100.00;100761.45;1784787;80;21109;-45
2021/04/17 04:25:15;;;;;;;0.10;0.10;;;;;;;5.04;100.00;100757.95;1784991;80;21130;-46
2021/04/17 04:27:42;;;;;;;0.25;0.25;;;;;;;5.07;100.00;100756.66;1784887;80;21582;-45
2021/04/17 04:30:12;;;;;;;0.82;0.82;;;;;;;5.08;100.00;100764.56;1784468;80;21552;-47
2021/04/17 04:32:40;;;;;;;0.33;0.33;;;;;;;5.08;100.00;100763.21;1784926;80;21115;-46
2021/04/17 04:35:09;;;;;;;0.20;0.20;;;;;;;5.10;100.00;100763.80;1784940;80;21142;-45
2021/04/17 04:37:38;;;;;;;1.70;0.50;;;;;;;5.13;100.00;100766.03;1784972;80;21149;-45
2021/04/17 04:40:07;;;;;;;0.80;0.80;;;;;;;5.15;100.00;100772.58;1785093;80;21153;-45
2021/04/17 04:42:36;;;;;;;0.80;0.45;;;;;;;5.13;100.00;100774.16;1785089;80;21114;-45
2021/04/17 04:45:08;;;;;;;0.93;0.78;;;;;;;5.14;100.00;100769.05;1762797;80;20979;-47
2021/04/17 04:47:35;;;;;;;0.13;0.13;;;;;;;5.18;100.00;100780.23;1785539;80;21184;-45
2021/04/17 04:50:07;;;;;;;0.00;0.00;;;;;;;5.21;100.00;100780.29;1785175;80;21137;-45
2021/04/17 04:52:34;;;;;;;1.40;0.30;;;;;;;5.22;100.00;100785.98;1785062;80;21167;-45
2021/04/17 04:55:04;;;;;;;0.72;0.72;;;;;;;5.23;100.00;100780.88;1785091;80;21150;-47
2021/04/17 04:57:32;;;;;;;0.50;0.50;;;;;;;5.25;100.00;100795.84;1784766;80;21118;-45
2021/04/17 04:59:59;;;;;;;0.55;0.50;;;;;;;5.27;100.00;100792.91;1784745;79;21138;-45
2021/04/17 05:02:27;;;;;;;0.72;0.72;;;;;;;5.29;100.00;100796.19;1785095;80;21165;-46
2021/04/17 05:04:54;;;;;;;0.37;0.37;;;;;;;5.32;100.00;100803.33;1784832;80;21178;-46
2021/04/17 05:07:22;;;;;;;0.60;0.60;;;;;;;5.35;100.00;100796.61;1784718;80;21098;-46
2021/04/17 05:09:50;;;;;;;1.15;0.47;;;;;;;5.37;100.00;100797.20;1784747;80;21134;-45
2021/04/17 05:12:17;;;;;;;0.17;0.10;;;;;;;5.41;100.00;100803.78;1784916;80;21627;-46
2021/04/17 05:14:46;;;;;;;0.20;0.20;;;;;;;5.43;100.00;100804.38;1784730;80;21126;-46
2021/04/17 05:17:16;;;;;;;0.50;0.50;;;;;;;5.44;100.00;100803.84;1784275;80;21170;-47
2021/04/17 05:19:44;;;;;;;0.33;0.33;;;;;;;5.45;100.00;100802.26;1784808;80;21117;-46
2021/04/17 05:22:12;;;;;;;1.07;1.00;;;;;;;5.49;100.00;100814.28;1784796;80;21110;-46
2021/04/17 05:24:40;;;;;;;0.23;0.23;;;;;;;5.53;100.00;100810.02;1785256;80;21106;-46
2021/04/17 05:27:08;;;;;;;1.10;0.47;;;;;;;5.55;100.00;100818.75;1785170;80;21208;-47
2021/04/17 05:29:36;;;;;;;0.20;0.20;;;;;;;5.55;100.00;100813.33;1784947;80;20995;-46
2021/04/17 05:32:05;;;;;;;1.80;0.50;;;;;;;5.55;100.00;100810.61;1784927;80;21158;-48
2021/04/17 05:34:34;;;;;;;0.53;0.40;;;;;;;5.57;100.00;100819.34;1785016;80;21137;-46
2021/04/17 05:37:02;;;;;;;0.65;0.47;;;;;;;5.59;100.00;100819.93;1784999;80;21173;-47
2021/04/17 05:39:29;;;;;;;0.60;0.60;;;;;;;5.60;100.00;100814.79;1784853;80;21127;-46
2021/04/17 05:41:57;;;;;;;1.17;0.65;;;;;;;5.64;100.00;100821.94;1785094;80;21145;-46
2021/04/17 05:44:24;;;;;;;0.60;0.60;;;;;;;5.68;100.00;100822.27;1784811;80;21133;-46
2021/04/17 05:46:52;;;;;;;1.20;0.85;;;;;;;5.71;100.00;100824.50;1785083;80;21114;-47
2021/04/17 05:49:20;;;;;;;1.10;0.95;;;;;;;5.76;100.00;100821.90;1785135;80;21390;-45
2021/04/17 05:51:47;;;;;;;0.00;0.00;;;;;;;5.82;100.00;100820.95;1785018;80;21106;-45
2021/04/17 05:54:17;;;;;;;1.45;1.27;;;;;;;5.85;100.00;100820.47;1784919;80;21146;-46
2021/04/17 05:56:44;;;;;;;2.75;1.30;;;;;;;5.90;100.00;100823.30;1785092;80;21134;-47
2021/04/17 05:59:12;;;;;;;0.13;0.13;;;;;;;5.94;100.00;100827.22;1782185;80;21126;-45
2021/04/17 06:01:39;;;;;;;0.50;0.50;;;;;;;6.01;100.00;100824.38;1785177;80;21130;-46
2021/04/17 06:04:08;;;;;;;1.95;0.68;;;;;;;6.09;100.00;100832.67;1775046;80;21181;-47
2021/04/17 06:06:35;;;;;;;1.37;0.57;;;;;;;6.13;100.00;100830.59;1784826;80;21584;-45
2021/04/17 06:09:04;;;;;;;0.15;0.15;;;;;;;6.22;100.00;100836.45;1784836;78;21162;-45
2021/04/17 06:11:31;;;;;;;0.23;0.23;;;;;;;6.30;100.00;100836.06;1784649;80;21122;-45
2021/04/17 06:13:59;;;;;;;0.47;0.47;;;;;;;6.36;100.00;100832.40;1784595;79;21262;-44
2021/04/17 06:16:27;;;;;;;0.62;0.62;;;;;;;6.47;100.00;100830.69;1780312;80;21134;-46
2021/04/17 06:18:56;;;;;;;0.00;0.00;;;;;;;6.58;100.00;100833.90;1762652;80;20995;-45
2021/04/17 06:21:25;;;;;;;0.42;0.42;;;;;;;6.63;100.00;100835.89;1787227;79;21169;-46
2021/04/17 06:23:53;;;;;;;0.82;0.82;;;;;;;6.69;100.00;100830.83;1793772;79;21118;-46
2021/04/17 06:26:22;;;;;;;0.50;0.50;;;;;;;6.79;100.00;100831.55;1793812;79;21157;-45
2021/04/17 06:28:50;;;;;;;0.20;0.20;;;;;;;6.90;100.00;100834.74;1793746;79;21122;-45
2021/04/17 06:31:18;;;;;;;1.45;0.53;;;;;;;6.98;100.00;100838.94;1793960;79;21543;-46
2021/04/17 06:33:46;;;;;;;0.10;0.10;;;;;;;7.04;100.00;100840.13;1793888;79;21120;-44
2021/04/17 06:36:15;;;;;;;0.20;0.20;;;;;;;7.08;100.00;100841.83;1794039;79;21946;-46
2021/04/17 06:38:43;;;;;;;0.55;0.55;;;;;;;7.11;100.00;100846.22;1794071;79;21124;-45
2021/04/17 06:41:11;;;;;;;0.50;0.50;;;;;;;7.15;100.00;100847.92;1793954;79;21269;-44
2021/04/17 06:43:41;;;;;;;0.47;0.45;;;;;;;7.19;100.00;100842.27;1794084;79;21175;-45
2021/04/17 06:46:12;;;;;;;2.95;0.82;;;;;;;7.21;100.00;100853.72;1794279;79;21649;-45
2021/04/17 06:48:41;;;;;;;1.02;0.37;;;;;;;7.22;100.00;100847.73;1793812;79;21132;-46
2021/04/17 06:51:15;;;;;;;0.10;0.10;;;;;;;7.22;100.00;100858.10;1793801;79;21132;-46
2021/04/17 06:53:43;;;;;;;0.62;0.62;;;;;;;7.23;100.00;100857.56;1793701;78;21193;-45
2021/04/17 06:56:11;;;;;;;0.35;0.35;;;;;;;7.26;100.00;100856.52;1793701;79;21519;-44
2021/04/17 06:58:39;;;;;;;0.40;0.40;;;;;;;7.27;100.00;100858.69;1793696;78;21783;-45
2021/04/17 07:01:08;;;;;;;1.25;0.23;;;;;;;7.27;100.00;100857.34;1793482;79;21133;-45
2021/04/17 07:03:38;;;;;;;0.40;0.40;;;;;;;7.26;100.00;100851.63;1766362;78;21134;-45
2021/04/17 07:06:06;;;;;;;0.80;0.65;;;;;;;7.27;100.00;100859.54;1793990;79;21095;-45
2021/04/17 07:08:39;;;;;;;0.50;0.50;;;;;;;7.29;100.00;100860.63;1791605;79;21138;-45
2021/04/17 07:11:07;;;;;;;0.20;0.15;;;;;;;7.29;100.00;100869.64;1710906;80;21137;-44
2021/04/17 07:13:36;;;;;;;0.20;0.20;;;;;;;7.33;100.00;100872.13;1764791;79;21113;-45
2021/04/17 07:16:07;;;;;;;0.57;0.30;;;;;;;7.41;100.00;100880.95;1762858;81;21596;-44
2021/04/17 07:18:44;;;;;;;0.57;0.42;;;;;;;7.47;99.79;100882.69;1845618;76;22642;-45
2021/04/17 07:21:18;;;;;;;0.75;0.75;;;;;;;7.39;99.16;100883.08;1784042;80;21112;-45
2021/04/17 07:23:47;;;;;;;0.82;0.82;;;;;;;7.39;99.02;100887.16;1783323;78;21532;-44
2021/04/17 07:26:23;;;;;;;0.00;0.00;;;;;;;7.36;98.81;100893.10;1785809;80;21138;-45
2021/04/17 07:29:13;;;;;;;1.70;1.57;;;;;;;7.33;98.59;100895.23;1785752;78;21138;-44
2021/04/17 07:31:37;;;;;;;0.60;0.60;;;;;;;7.31;98.20;100900.63;1782082;80;21237;-45
2021/04/17 07:34:15;;;;;;;0.37;0.37;;;;;;;7.30;98.06;100902.53;1701759;81;21462;-44
2021/04/17 07:36:55;;;;;;;0.40;0.40;;;;;;;7.32;97.97;100902.30;1784452;80;21576;-44
2021/04/17 07:39:39;;;;;;;1.17;1.15;;;;;;;7.33;97.71;100901.22;1773874;80;21123;-45
2021/04/17 07:42:11;;;;;;;0.98;0.98;;;;;;;7.33;97.45;100916.98;1777180;80;21516;-45
2021/04/17 07:44:43;;;;;;;1.65;0.62;;;;;;;7.28;96.99;100914.19;1754729;80;21594;-44
2021/04/17 07:47:13;;;;;;;0.40;0.33;;;;;;;7.21;96.62;100920.31;1776668;80;21138;-45
2021/04/17 07:49:41;;;;;;;0.10;0.10;;;;;;;7.19;96.90;100921.63;1785901;80;21162;-46
2021/04/17 07:52:12;;;;;;;0.25;0.25;;;;;;;7.16;96.87;100922.94;1785702;80;21161;-45
2021/04/17 07:54:53;;;;;;;0.33;0.33;;;;;;;7.16;96.98;100928.37;1785620;78;21130;-44
2021/04/17 07:57:21;;;;;;;0.10;0.10;;;;;;;7.15;96.65;100933.54;1780072;80;21602;-45
2021/04/17 07:59:49;;;;;;;0.60;0.53;;;;;;;7.10;96.31;100925.30;1719798;81;21154;-44
2021/04/17 08:02:16;;;;;;;0.85;0.85;;;;;;;7.05;96.38;100932.81;1734643;81;21154;-44
2021/04/17 08:04:45;;;;;;;1.27;1.12;;;;;;;7.03;96.53;100936.31;1765739;80;20992;-45
2021/04/17 08:07:13;;;;;;;0.72;0.72;;;;;;;7.01;96.41;100937.63;1724390;81;21130;-45
2021/04/17 08:09:42;;;;;;;0.50;0.50;;;;;;;6.99;96.37;100935.67;1702277;81;21126;-44
2021/04/17 08:12:10;;;;;;;0.17;0.17;;;;;;;6.96;96.26;100941.61;1725508;81;21126;-46
2021/04/17 08:14:39;;;;;;;0.30;0.30;;;;;;;6.92;95.86;100939.08;1770055;78;21519;-44
2021/04/17 08:17:06;;;;;;;0.57;0.53;;;;;;;6.87;95.75;100946.59;1778243;80;21165;-44
2021/04/17 08:19:34;;;;;;;0.20;0.20;;;;;;;6.84;95.80;100947.90;1783023;78;21172;-44
2021/04/17 08:22:02;;;;;;;1.90;0.68;;;;;;;6.83;95.86;100946.27;1782226;80;21120;-44
2021/04/17 08:24:32;;;;;;;0.65;0.50;;;;;;;6.82;95.64;100947.31;1791462;78;21134;-45
2021/04/17 08:27:00;;;;;;;0.45;0.35;;;;;;;6.80;95.53;100945.39;1791554;80;21125;-46
2021/04/17 08:29:51;;;;;;;0.75;0.75;;;;;;;6.82;95.62;100944.59;1762269;80;21154;-44
2021/04/17 08:32:29;;;;;;;0.10;0.10;;;;;;;6.86;95.64;100943.59;1786298;80;21206;-45
2021/04/17 08:35:19;;;;;;;1.12;1.05;;;;;;;6.89;95.73;100942.56;1778618;80;21478;-44
2021/04/17 08:38:03;;;;;;;2.45;0.75;;;;;;;6.96;95.49;100953.83;1790929;80;21134;-44
2021/04/17 08:40:42;;;;;;;0.57;0.57;;;;;;;7.00;95.29;100944.14;1791165;80;21109;-45
2021/04/17 08:43:18;;;;;;;0.08;0.08;;;;;;;7.05;94.70;100947.77;1791211;80;21702;-44
2021/04/17 08:46:13;;;;;;;0.40;0.40;;;;;;;7.06;94.52;100947.22;1791132;80;21146;-45
2021/04/17 08:48:52;;;;;;;2.22;1.35;;;;;;;7.10;94.56;100948.39;1790306;78;21125;-45
2021/04/17 08:51:28;;;;;;;0.80;0.80;;;;;;;7.17;94.06;100947.71;1786184;80;21107;-45
2021/04/17 08:54:10;;;;;;;0.55;0.55;;;;;;;7.21;93.36;100945.31;1790907;78;21038;-45
2021/04/17 08:57:00;;;;;;;0.47;0.47;;;;;;;7.24;92.97;100944.28;1791145;80;21181;-45
2021/04/17 08:59:31;;;;;;;1.00;1.00;;;;;;;7.26;92.70;100946.22;1790962;80;21445;-46
2021/04/17 09:02:12;;;;;;;1.90;1.72;;;;;;;7.30;92.60;100946.03;1790864;80;21106;-44
2021/04/17 09:05:07;;;;;;;0.60;0.50;;;;;;;7.35;92.27;100944.48;1790616;80;21489;-45
2021/04/17 09:07:38;;;;;;;3.47;1.75;;;;;;;7.39;91.72;100942.90;1790698;80;21596;-44
2021/04/17 09:10:31;;;;;;;2.25;2.15;;;;;;;7.42;91.47;100953.27;1790639;78;21156;-44
2021/04/17 09:13:20;;;;;;;1.30;0.88;;;;;;;7.41;90.96;100945.66;1732686;80;21192;-44
2021/04/17 09:16:02;;;;;;;1.75;0.80;;;;;;;7.40;90.80;100948.10;1791127;78;21429;-45
2021/04/17 09:18:40;;;;;;;0.30;0.30;;;;;;;7.45;90.51;100945.47;1791116;80;21098;-45
2021/04/17 09:21:23;;;;;;;1.20;0.90;;;;;;;7.55;90.42;100942.09;1788681;80;21177;-44
2021/04/17 09:23:52;;;;;;;0.72;0.72;;;;;;;7.68;90.18;100944.47;1780327;78;21137;-45
2021/04/17 09:26:36;;;;;;;0.98;0.98;;;;;;;7.84;90.14;100941.98;1790580;80;21082;-44
2021/04/17 09:29:25;;;;;;;4.05;1.87;;;;;;;7.95;89.57;100944.61;1762908;80;21146;-45
2021/04/17 09:31:58;;;;;;;1.02;0.95;;;;;;;8.03;88.97;100944.72;1767102;80;21453;-44
2021/04/17 09:34:26;;;;;;;1.27;0.53;;;;;;;8.08;88.64;100950.23;1760054;80;21173;-44
2021/04/17 09:36:54;;;;;;;1.17;0.35;;;;;;;8.13;88.17;100951.66;1762512;81;21142;-44
2021/04/17 09:39:30;;;;;;;1.62;0.95;;;;;;;8.15;87.88;100948.16;1767395;78;21148;-44
2021/04/17 09:42:00;;;;;;;0.60;0.60;;;;;;;8.15;87.73;100950.88;1735348;82;21146;-45
2021/04/17 09:44:45;;;;;;;0.98;0.90;;;;;;;8.11;87.19;100951.63;1791667;78;21129;-44
2021/04/17 09:47:15;;;;;;;0.82;0.82;;;;;;;8.06;87.08;100953.77;1791551;80;21129;-44
2021/04/17 09:49:45;;;;;;;0.72;0.72;;;;;;;8.00;86.69;100957.47;1790565;80;21118;-45
2021/04/17 09:52:18;;;;;;;1.02;0.88;;;;;;;7.95;87.03;100953.31;1786704;78;21418;-44
2021/04/17 09:54:47;;;;;;;1.72;0.98;;;;;;;7.94;87.07;100961.20;1789371;78;21014;-44
2021/04/17 09:57:15;;;;;;;0.62;0.62;;;;;;;7.89;86.80;100955.14;1789204;78;21110;-44
2021/04/17 09:59:58;;;;;;;0.60;0.60;;;;;;;7.84;87.02;100961.02;1791508;78;21157;-44
2021/04/17 10:02:47;;;;;;;0.62;0.42;;;;;;;7.82;87.06;100965.91;1734589;82;21287;-44
2021/04/17 10:05:31;;;;;;;2.70;0.60;;;;;;;7.79;87.07;100971.83;1791772;80;21564;-44
2021/04/17 10:08:07;;;;;;;1.37;0.93;;;;;;;7.82;86.97;100967.27;1887418;76;22696;-44
2021/04/17 10:10:36;;;;;;;1.55;0.75;;;;;;;7.76;87.04;100977.23;1789311;78;21454;-44
2021/04/17 10:13:04;;;;;;;0.55;0.55;;;;;;;7.74;86.85;100976.14;1782541;80;21118;-44
2021/04/17 10:15:34;;;;;;;1.57;0.45;;;;;;;7.79;87.04;100979.98;1761162;79;21126;-43
2021/04/17 10:20:43;;;;;;;1.95;1.27;;;;;;;7.94;86.29;100975.63;1855565;76;22753;-43
2021/04/17 10:23:11;;;;;;;0.40;0.40;;;;;;;8.00;86.16;100979.24;1819366;78;21107;-45
2021/04/17 10:25:44;;;;;;;1.85;0.23;;;;;;;8.06;85.71;100982.34;1825240;77;21102;-44
2021/04/17 10:28:24;;;;;;;0.72;0.72;;;;;;;8.13;85.94;100987.05;1835017;78;21142;-45
2021/04/17 10:30:57;;;;;;;0.30;0.20;;;;;;;8.24;85.39;100979.05;1826324;78;21123;-44
2021/04/17 10:33:26;;;;;;;0.40;0.40;;;;;;;8.29;84.98;100977.77;1824617;78;21091;-44
2021/04/17 10:35:56;;;;;;;1.42;0.72;;;;;;;8.35;84.80;100972.66;1825097;78;21146;-44
2021/04/17 10:38:30;;;;;;;2.37;0.85;;;;;;;8.45;84.44;100979.63;1823903;78;22015;-43
2021/04/17 10:41:01;;;;;;;1.05;0.95;;;;;;;8.53;84.59;100981.09;1822974;77;21130;-44
2021/04/17 10:43:29;;;;;;;0.17;0.17;;;;;;;8.61;84.46;100984.75;1758357;80;21139;-43
2021/04/17 10:45:59;;;;;;;0.72;0.53;;;;;;;8.69;83.98;100988.93;1750157;80;21155;-46
2021/04/17 10:48:27;;;;;;;2.52;0.60;;;;;;;8.75;83.30;100997.44;1748828;81;21099;-43
2021/04/17 10:51:06;;;;;;;1.80;1.07;;;;;;;8.79;82.90;100997.23;1789106;79;21471;-45
2021/04/17 10:53:50;;;;;;;0.13;0.13;;;;;;;8.75;82.82;100996.92;1774183;80;21166;-44
2021/04/17 10:56:22;;;;;;;0.37;0.25;;;;;;;8.67;82.34;100999.26;1783485;80;21580;-43
2021/04/17 10:59:03;;;;;;;0.98;0.55;;;;;;;8.59;82.24;100999.16;1798101;78;21732;-44
2021/04/17 11:01:36;;;;;;;0.37;0.37;;;;;;;8.50;81.92;100997.94;1790803;79;21151;-44
2021/04/17 11:04:04;;;;;;;1.00;0.77;;;;;;;8.42;82.24;101004.65;1785773;80;21439;-43
2021/04/17 11:09:19;;;;;;;7.80;2.55;;;;;;;8.48;82.83;101002.30;1832292;76;22372;-44
2021/04/17 11:11:57;;;;;;;2.40;1.85;;;;;;;8.49;82.49;101012.11;1794791;78;21114;-44
2021/04/17 11:14:27;;;;;;;4.72;2.40;;;;;;;8.54;82.33;101012.17;1796016;77;21142;-44
2021/04/17 11:16:56;;;;;;;1.12;1.10;;;;;;;8.54;82.24;101005.91;1752193;81;21179;-43
2021/04/17 11:19:34;;;;;;;6.45;2.42;;;;;;;8.52;82.30;101015.68;1760325;81;21128;-43
2021/04/17 11:22:20;;;;;;;6.55;3.50;;;;;;;8.50;82.32;101019.73;1745512;80;21126;-43
2021/04/17 11:25:04;;;;;;;1.10;1.10;;;;;;;8.48;82.58;101015.92;1738905;81;21438;-43
2021/04/17 11:27:32;;;;;;;1.15;1.15;;;;;;;8.44;82.43;101018.84;1741001;81;21217;-45
2021/04/17 11:30:01;;;;;;;9.58;5.15;;;;;;;8.39;82.62;101014.66;1741182;81;21125;-46
2021/04/17 11:32:30;;;;;;;1.80;1.55;;;;;;;8.38;82.63;101023.37;1760144;81;21130;-44
2021/04/17 11:34:58;;;;;;;4.12;1.10;;;;;;;8.38;82.61;101023.89;1737106;81;21106;-44
2021/04/17 11:37:30;;;;;;;1.00;0.95;;;;;;;8.34;82.61;101017.31;1716931;81;21215;-44
2021/04/17 11:39:57;;;;;;;1.72;1.00;;;;;;;8.32;82.74;101016.19;1754444;81;21465;-44
2021/04/17 11:42:26;;;;;;;1.65;1.30;;;;;;;8.32;82.64;101019.45;1768677;80;21126;-44
2021/04/17 11:44:56;;;;;;;3.40;2.80;;;;;;;8.33;82.53;101010.20;1774347;80;21084;-44
2021/04/17 11:47:23;;;;;;;3.87;3.40;;;;;;;8.35;82.72;101008.06;1721590;81;21629;-43
2021/04/17 11:49:51;;;;;;;5.75;1.98;;;;;;;8.42;82.74;101010.64;1725168;81;21114;-45
2021/04/17 11:52:18;;;;;;;0.57;0.57;;;;;;;8.55;82.77;101004.27;1745315;81;21088;-43